Time,TemperatureF,DewpointF,PressureIn,WindDirection,WindDirectionDegrees,WindSpeedMPH,WindSpeedGustMPH,Humidity,HourlyPrecipIn,Conditions,Clouds,dailyrainin,SolarRadiationWatts/m^2,SoftwareType,DateUTC
2013-09-13 00:00:00,71.6,69.5,29.63,WNW,295,0.0,0.0,93,0.00,,,-99.99,1.0,HOBO +U30 +Weather +,2013-09-13 04:00:00,
2013-09-13 00:01:00,71.6,69.5,29.63,NW,310,0.0,0.0,92,0.00,,,-99.99,1.0,HOBO +U30 +Weather +,2013-09-13 04:01:00,
2013-09-13 00:02:00,71.6,69.5,29.63,WNW,288,0.0,0.0,92,0.00,,,-99.99,1.0,HOBO +U30 +Weather +,2013-09-13 04:02:00,
2013-09-13 00:03:00,71.4,69.4,29.63,WNW,286,0.0,0.0,93,0.00,,,-99.99,1.0,HOBO +U30 +Weather +,2013-09-13 04:03:00,
2013-09-13 00:04:00,71.3,69.4,29.62,NW,307,0.0,0.0,93,0.00,,,-99.99,1.0,HOBO +U30 +Weather +,2013-09-13 04:04:00,
2013-09-13 00:05:00,71.2,69.4,29.63,WNW,303,0.0,0.0,93,0.00,,,-99.99,1.0,HOBO +U30 +Weather +,2013-09-13 04:05:00,
2013-09-13 00:06:00,71.0,69.3,29.63,WNW,302,0.0,0.0,94,0.00,,,-99.99,1.0,HOBO +U30 +Weather +,2013-09-13 04:06:00,
2013-09-13 00:07:00,70.9,69.3,29.63,West,275,0.0,0.0,94,0.00,,,-99.99,1.0,HOBO +U30 +Weather +,2013-09-13 04:07:00,
2013-09-13 00:08:00,70.8,69.3,29.63,WNW,292,0.0,0.0,94,0.00,,,-99.99,1.0,HOBO +U30 +Weather +,2013-09-13 04:08:00,
2013-09-13 00:09:00,70.8,69.3,29.63,NW,307,0.0,0.0,95,0.00,,,-99.99,1.0,HOBO +U30 +Weather +,2013-09-13 04:09:00,
2013-09-13 00:10:00,70.8,69.3,29.63,NW,307,0.0,0.0,95,0.00,,,-99.99,1.0,HOBO +U30 +Weather +,2013-09-13 04:10:00,
2013-09-13 00:11:00,70.7,69.3,29.63,WNW,295,0.0,0.0,95,0.00,,,-99.99,1.0,HOBO +U30 +Weather +,2013-09-13 04:11:00,
2013-09-13 00:12:00,70.6,69.2,29.63,WNW,300,0.0,0.0,95,0.00,,,-99.99,1.0,HOBO +U30 +Weather +,2013-09-13 04:12:00,
2013-09-13 00:13:00,70.6,69.3,29.62,West,279,0.0,0.0,95,0.00,,,-99.99,1.0,HOBO +U30 +Weather +,2013-09-13 04:13:00,
2013-09-13 00:21:00,70.6,69.4,29.63,WNW,285,0.0,0.0,95,0.00,,,-99.99,1.0,HOBO +U30 +Weather +,2013-09-13 04:21:00,
2013-09-13 00:23:00,70.6,69.3,29.63,WNW,296,0.0,0.0,95,0.00,,,-99.99,1.0,HOBO +U30 +Weather +,2013-09-13 04:23:00,
2013-09-13 00:31:00,70.6,69.3,29.62,WNW,293,0.0,0.0,95,0.00,,,-99.99,1.0,HOBO +U30 +Weather +,2013-09-13 04:31:00,
2013-09-13 00:41:00,70.5,69.3,29.62,WNW,298,0.0,0.0,95,0.00,,,-99.99,1.0,HOBO +U30 +Weather +,2013-09-13 04:41:00,
2013-09-13 00:51:00,70.4,69.1,29.62,WNW,288,0.0,0.0,95,0.00,,,-99.99,1.0,HOBO +U30 +Weather +,2013-09-13 04:51:00,
2013-09-13 01:01:00,70.1,68.9,29.62,WNW,289,0.0,0.0,95,0.00,,,-99.99,1.0,HOBO +U30 +Weather +,2013-09-13 05:01:00,
2013-09-13 01:11:00,69.9,69.0,29.61,WNW,291,0.0,0.0,96,0.00,,,-99.99,1.0,HOBO +U30 +Weather +,2013-09-13 05:11:00,
2013-09-13 01:20:00,70.0,69.1,29.62,WNW,288,0.0,0.0,96,0.00,,,-99.99,1.0,HOBO +U30 +Weather +,2013-09-13 05:20:00,
2013-09-13 01:21:00,69.9,69.0,29.61,WNW,293,0.0,0.0,96,0.00,,,-99.99,1.0,HOBO +U30 +Weather +,2013-09-13 05:21:00,
2013-09-13 01:31:00,69.9,69.0,29.61,WNW,300,0.0,0.0,96,0.00,,,-99.99,1.0,HOBO +U30 +Weather +,2013-09-13 05:31:00,
2013-09-13 01:41:00,69.7,68.9,29.61,WNW,292,0.0,0.0,97,0.00,,,-99.99,1.0,HOBO +U30 +Weather +,2013-09-13 05:41:00,
2013-09-13 01:51:00,69.4,68.8,29.61,WNW,296,0.0,0.0,97,0.00,,,-99.99,1.0,HOBO +U30 +Weather +,2013-09-13 05:51:00,
2013-09-13 02:00:00,69.2,68.5,29.60,WNW,291,0.0,0.0,97,0.00,,,-99.99,1.0,HOBO +U30 +Weather +,2013-09-13 06:00:00,
2013-09-13 02:01:00,69.0,68.4,29.59,WNW,286,0.0,0.0,97,0.00,,,-99.99,1.0,HOBO +U30 +Weather +,2013-09-13 06:01:00,
2013-09-13 02:02:00,69.0,68.4,29.59,WNW,284,0.0,0.0,97,0.00,,,-99.99,1.0,HOBO +U30 +Weather +,2013-09-13 06:02:00,
2013-09-13 02:03:00,68.9,68.3,29.59,West,275,0.0,0.0,97,0.00,,,-99.99,1.0,HOBO +U30 +Weather +,2013-09-13 06:03:00,
2013-09-13 02:04:00,69.0,68.4,29.59,WNW,298,0.0,0.0,97,0.00,,,-99.99,1.0,HOBO +U30 +Weather +,2013-09-13 06:04:00,
2013-09-13 02:05:00,69.0,68.4,29.59,WNW,298,0.0,0.0,97,0.00,,,-99.99,1.0,HOBO +U30 +Weather +,2013-09-13 06:05:00,
2013-09-13 02:06:00,69.0,68.4,29.59,WNW,298,0.0,0.0,97,0.00,,,-99.99,1.0,HOBO +U30 +Weather +,2013-09-13 06:06:00,
2013-09-13 02:07:00,68.9,68.3,29.59,WNW,292,0.0,0.0,97,0.00,,,-99.99,1.0,HOBO +U30 +Weather +,2013-09-13 06:07:00,
2013-09-13 02:08:00,69.0,68.4,29.59,WNW,282,0.0,0.0,97,0.00,,,-99.99,1.0,HOBO +U30 +Weather +,2013-09-13 06:08:00,
2013-09-13 02:09:00,69.0,68.4,29.59,WNW,291,0.0,0.0,97,0.00,,,-99.99,1.0,HOBO +U30 +Weather +,2013-09-13 06:09:00,
2013-09-13 02:10:00,69.0,68.4,29.59,WNW,295,0.0,0.0,97,0.00,,,-99.99,1.0,HOBO +U30 +Weather +,2013-09-13 06:10:00,
2013-09-13 02:11:00,69.0,68.4,29.59,WNW,292,0.0,0.0,97,0.00,,,-99.99,1.0,HOBO +U30 +Weather +,2013-09-13 06:11:00,
2013-09-13 02:12:00,69.1,68.5,29.59,WNW,285,0.0,0.0,97,0.00,,,-99.99,1.0,HOBO +U30 +Weather +,2013-09-13 06:12:00,
2013-09-13 02:13:00,69.1,68.6,29.59,WNW,293,0.0,0.0,97,0.00,,,-99.99,1.0,HOBO +U30 +Weather +,2013-09-13 06:13:00,
2013-09-13 02:14:00,69.2,68.7,29.59,West,278,0.0,0.0,98,0.00,,,-99.99,1.0,HOBO +U30 +Weather +,2013-09-13 06:14:00,
2013-09-13 02:15:00,69.3,68.7,29.59,West,274,0.0,0.0,97,0.00,,,-99.99,1.0,HOBO +U30 +Weather +,2013-09-13 06:15:00,
2013-09-13 02:16:00,69.3,68.7,29.59,West,275,0.0,0.0,97,0.00,,,-99.99,1.0,HOBO +U30 +Weather +,2013-09-13 06:16:00,
2013-09-13 02:17:00,69.3,68.6,29.60,West,279,0.0,0.0,97,0.00,,,-99.99,1.0,HOBO +U30 +Weather +,2013-09-13 06:17:00,
2013-09-13 02:18:00,69.3,68.6,29.59,WNW,285,0.0,0.0,97,0.00,,,-99.99,1.0,HOBO +U30 +Weather +,2013-09-13 06:18:00,
2013-09-13 02:19:00,69.3,68.6,29.59,WNW,288,0.0,0.0,97,0.00,,,-99.99,1.0,HOBO +U30 +Weather +,2013-09-13 06:19:00,
2013-09-13 02:20:00,69.3,68.7,29.59,WNW,302,0.0,0.0,97,0.00,,,-99.99,1.0,HOBO +U30 +Weather +,2013-09-13 06:20:00,
2013-09-13 02:21:00,69.3,68.7,29.59,West,281,0.0,0.0,97,0.00,,,-99.99,1.0,HOBO +U30 +Weather +,2013-09-13 06:21:00,
2013-09-13 02:22:00,69.4,68.8,29.59,WNW,296,0.0,0.0,97,0.00,,,-99.99,1.0,HOBO +U30 +Weather +,2013-09-13 06:22:00,
2013-09-13 02:23:00,69.4,68.8,29.59,WNW,289,0.0,0.0,97,0.00,,,-99.99,1.0,HOBO +U30 +Weather +,2013-09-13 06:23:00,
2013-09-13 02:24:00,69.5,68.8,29.59,WNW,282,0.0,0.0,97,0.00,,,-99.99,1.0,HOBO +U30 +Weather +,2013-09-13 06:24:00,
2013-09-13 02:25:00,69.5,68.8,29.58,West,274,0.0,0.0,97,0.00,,,-99.99,1.0,HOBO +U30 +Weather +,2013-09-13 06:25:00,
2013-09-13 02:26:00,69.5,68.8,29.59,WNW,293,0.0,0.0,97,0.00,,,-99.99,1.0,HOBO +U30 +Weather +,2013-09-13 06:26:00,
2013-09-13 02:27:00,69.5,68.8,29.59,WNW,291,0.0,0.0,97,0.00,,,-99.99,1.0,HOBO +U30 +Weather +,2013-09-13 06:27:00,
2013-09-13 02:28:00,69.5,68.8,29.59,NW,305,0.0,0.0,97,0.00,,,-99.99,1.0,HOBO +U30 +Weather +,2013-09-13 06:28:00,
2013-09-13 02:29:00,69.5,68.8,29.58,WNW,282,0.0,0.0,97,0.00,,,-99.99,1.0,HOBO +U30 +Weather +,2013-09-13 06:29:00,
2013-09-13 02:30:00,69.5,68.8,29.59,West,281,0.0,0.0,97,0.00,,,-99.99,1.0,HOBO +U30 +Weather +,2013-09-13 06:30:00,
2013-09-13 02:40:00,69.5,68.8,29.58,NW,312,0.0,0.0,97,0.00,,,-99.99,1.0,HOBO +U30 +Weather +,2013-09-13 06:40:00,
2013-09-13 02:50:00,69.6,68.9,29.58,WNW,289,0.0,0.0,97,0.00,,,-99.99,1.0,HOBO +U30 +Weather +,2013-09-13 06:50:00,
2013-09-13 02:51:00,69.7,68.9,29.57,West,281,0.0,0.0,97,0.00,,,-99.99,1.0,HOBO +U30 +Weather +,2013-09-13 06:51:00,
2013-09-13 02:52:00,69.7,68.9,29.57,WNW,289,0.0,0.0,97,0.00,,,-99.99,1.0,HOBO +U30 +Weather +,2013-09-13 06:52:00,
2013-09-13 02:53:00,69.7,68.9,29.57,WNW,291,0.0,0.0,97,0.00,,,-99.99,1.0,HOBO +U30 +Weather +,2013-09-13 06:53:00,
2013-09-13 02:54:00,69.7,68.9,29.57,West,278,0.0,0.0,97,0.00,,,-99.99,1.0,HOBO +U30 +Weather +,2013-09-13 06:54:00,
2013-09-13 02:55:00,69.7,68.9,29.56,West,281,0.0,0.0,97,0.00,,,-99.99,1.0,HOBO +U30 +Weather +,2013-09-13 06:55:00,
2013-09-13 02:56:00,69.7,68.9,29.57,WNW,289,0.0,0.0,97,0.00,,,-99.99,1.0,HOBO +U30 +Weather +,2013-09-13 06:56:00,
2013-09-13 02:57:00,69.7,68.9,29.57,West,278,0.0,0.0,97,0.00,,,-99.99,1.0,HOBO +U30 +Weather +,2013-09-13 06:57:00,
2013-09-13 02:58:00,69.7,68.9,29.57,West,279,0.0,0.0,97,0.00,,,-99.99,1.0,HOBO +U30 +Weather +,2013-09-13 06:58:00,
2013-09-13 02:59:00,69.7,68.9,29.57,NW,307,0.0,0.0,97,0.00,,,-99.99,1.0,HOBO +U30 +Weather +,2013-09-13 06:59:00,
2013-09-13 03:00:00,69.7,68.9,29.57,WNW,286,0.0,0.0,97,0.00,,,-99.99,1.0,HOBO +U30 +Weather +,2013-09-13 07:00:00,
2013-09-13 03:01:00,69.7,68.8,29.56,WNW,295,0.0,0.0,97,0.00,,,-99.99,1.0,HOBO +U30 +Weather +,2013-09-13 07:01:00,
2013-09-13 03:02:00,69.7,68.8,29.56,West,281,0.0,0.0,97,0.00,,,-99.99,1.0,HOBO +U30 +Weather +,2013-09-13 07:02:00,
2013-09-13 03:03:00,69.7,68.8,29.57,WNW,291,0.0,0.0,97,0.00,,,-99.99,1.0,HOBO +U30 +Weather +,2013-09-13 07:03:00,
2013-09-13 03:04:00,69.7,68.9,29.57,WNW,293,0.0,0.0,97,0.00,,,-99.99,1.0,HOBO +U30 +Weather +,2013-09-13 07:04:00,
2013-09-13 03:05:00,69.8,68.9,29.56,NW,316,0.0,0.0,96,0.00,,,-99.99,1.0,HOBO +U30 +Weather +,2013-09-13 07:05:00,
2013-09-13 03:06:00,69.8,68.9,29.56,NW,309,0.0,0.0,96,0.00,,,-99.99,1.0,HOBO +U30 +Weather +,2013-09-13 07:06:00,
2013-09-13 03:07:00,69.8,68.9,29.57,WNW,282,0.0,0.0,96,0.00,,,-99.99,1.0,HOBO +U30 +Weather +,2013-09-13 07:07:00,
2013-09-13 03:08:00,69.8,68.9,29.56,WNW,286,0.0,0.0,96,0.00,,,-99.99,1.0,HOBO +U30 +Weather +,2013-09-13 07:08:00,
2013-09-13 03:09:00,69.7,68.9,29.57,WNW,299,0.0,0.0,96,0.00,,,-99.99,1.0,HOBO +U30 +Weather +,2013-09-13 07:09:00,
2013-09-13 03:10:00,69.8,68.9,29.57,WNW,291,0.0,0.0,96,0.00,,,-99.99,1.0,HOBO +U30 +Weather +,2013-09-13 07:10:00,
2013-09-13 03:11:00,69.8,68.9,29.57,West,279,0.0,0.0,96,0.00,,,-99.99,1.0,HOBO +U30 +Weather +,2013-09-13 07:11:00,
2013-09-13 03:12:00,69.8,68.9,29.56,WNW,286,0.0,0.0,96,0.00,,,-99.99,1.0,HOBO +U30 +Weather +,2013-09-13 07:12:00,
2013-09-13 03:13:00,69.7,68.9,29.57,WNW,293,0.0,0.0,96,0.00,,,-99.99,1.0,HOBO +U30 +Weather +,2013-09-13 07:13:00,
2013-09-13 03:14:00,69.7,68.8,29.56,WNW,293,0.0,0.0,96,0.00,,,-99.99,1.0,HOBO +U30 +Weather +,2013-09-13 07:14:00,
2013-09-13 03:15:00,69.7,68.8,29.56,WNW,296,0.0,0.0,96,0.00,,,-99.99,1.0,HOBO +U30 +Weather +,2013-09-13 07:15:00,
2013-09-13 03:16:00,69.7,68.8,29.57,WNW,286,0.0,0.0,96,0.00,,,-99.99,1.0,HOBO +U30 +Weather +,2013-09-13 07:16:00,
2013-09-13 03:17:00,69.7,68.8,29.57,West,281,0.0,0.0,96,0.00,,,-99.99,1.0,HOBO +U30 +Weather +,2013-09-13 07:17:00,
2013-09-13 03:18:00,69.7,68.8,29.57,NW,314,0.0,0.0,96,0.00,,,-99.99,1.0,HOBO +U30 +Weather +,2013-09-13 07:18:00,
2013-09-13 03:19:00,69.7,68.8,29.57,West,274,0.0,0.0,96,0.00,,,-99.99,1.0,HOBO +U30 +Weather +,2013-09-13 07:19:00,
2013-09-13 03:20:00,69.7,68.8,29.57,WNW,282,0.0,0.0,96,0.00,,,-99.99,1.0,HOBO +U30 +Weather +,2013-09-13 07:20:00,
2013-09-13 03:21:00,69.7,68.9,29.56,WNW,298,0.0,0.0,96,0.00,,,-99.99,1.0,HOBO +U30 +Weather +,2013-09-13 07:21:00,
2013-09-13 03:22:00,69.8,68.9,29.57,WNW,285,0.0,0.0,96,0.00,,,-99.99,1.0,HOBO +U30 +Weather +,2013-09-13 07:22:00,
2013-09-13 03:23:00,69.8,68.9,29.57,WNW,291,0.0,0.0,96,0.00,,,-99.99,1.0,HOBO +U30 +Weather +,2013-09-13 07:23:00,
2013-09-13 03:24:00,69.8,69.0,29.57,WNW,299,0.0,0.0,96,0.00,,,-99.99,1.0,HOBO +U30 +Weather +,2013-09-13 07:24:00,
2013-09-13 03:25:00,69.8,69.0,29.57,WNW,292,0.0,0.0,96,0.00,,,-99.99,1.0,HOBO +U30 +Weather +,2013-09-13 07:25:00,
2013-09-13 03:26:00,69.8,69.0,29.57,WNW,292,0.0,0.0,96,0.00,,,-99.99,1.0,HOBO +U30 +Weather +,2013-09-13 07:26:00,
2013-09-13 03:27:00,69.9,69.0,29.57,NW,310,0.0,0.0,96,0.00,,,-99.99,1.0,HOBO +U30 +Weather +,2013-09-13 07:27:00,
2013-09-13 03:28:00,69.9,69.0,29.57,WNW,293,0.0,0.0,96,0.00,,,-99.99,1.0,HOBO +U30 +Weather +,2013-09-13 07:28:00,
2013-09-13 03:29:00,69.9,69.1,29.57,West,275,0.0,0.0,97,0.00,,,-99.99,1.0,HOBO +U30 +Weather +,2013-09-13 07:29:00,
2013-09-13 03:30:00,69.9,69.1,29.57,West,279,0.0,0.0,97,0.00,,,-99.99,1.0,HOBO +U30 +Weather +,2013-09-13 07:30:00,
2013-09-13 03:31:00,69.9,69.1,29.57,WNW,286,0.0,0.0,97,0.00,,,-99.99,1.0,HOBO +U30 +Weather +,2013-09-13 07:31:00,
2013-09-13 03:32:00,69.9,69.1,29.56,WNW,285,0.0,0.0,97,0.00,,,-99.99,1.0,HOBO +U30 +Weather +,2013-09-13 07:32:00,
2013-09-13 03:33:00,69.9,69.1,29.57,WNW,289,0.0,0.0,97,0.00,,,-99.99,1.0,HOBO +U30 +Weather +,2013-09-13 07:33:00,
2013-09-13 03:34:00,70.0,69.2,29.57,NW,314,0.0,0.0,97,0.00,,,-99.99,1.0,HOBO +U30 +Weather +,2013-09-13 07:34:00,
2013-09-13 03:35:00,70.0,69.2,29.57,WNW,291,0.0,0.0,97,0.00,,,-99.99,1.0,HOBO +U30 +Weather +,2013-09-13 07:35:00,
2013-09-13 03:36:00,70.0,69.2,29.57,WNW,295,0.0,0.0,97,0.00,,,-99.99,1.0,HOBO +U30 +Weather +,2013-09-13 07:36:00,
2013-09-13 03:37:00,70.0,69.2,29.57,WNW,299,0.0,0.0,97,0.00,,,-99.99,1.0,HOBO +U30 +Weather +,2013-09-13 07:37:00,
2013-09-13 03:38:00,70.0,69.3,29.56,WNW,286,0.0,0.0,97,0.00,,,-99.99,1.0,HOBO +U30 +Weather +,2013-09-13 07:38:00,
2013-09-13 03:39:00,70.0,69.2,29.56,WNW,285,0.0,0.0,97,0.00,,,-99.99,1.0,HOBO +U30 +Weather +,2013-09-13 07:39:00,
2013-09-13 03:40:00,70.0,69.2,29.57,WNW,284,0.0,0.0,97,0.00,,,-99.99,1.0,HOBO +U30 +Weather +,2013-09-13 07:40:00,
2013-09-13 03:41:00,70.0,69.2,29.56,WNW,286,0.0,0.0,97,0.00,,,-99.99,1.0,HOBO +U30 +Weather +,2013-09-13 07:41:00,
2013-09-13 03:42:00,70.0,69.2,29.56,WNW,286,0.0,0.0,97,0.00,,,-99.99,1.0,HOBO +U30 +Weather +,2013-09-13 07:42:00,
2013-09-13 03:43:00,70.0,69.2,29.57,West,281,0.0,0.0,97,0.00,,,-99.99,1.0,HOBO +U30 +Weather +,2013-09-13 07:43:00,
2013-09-13 03:44:00,70.0,69.2,29.56,WNW,288,0.0,0.0,97,0.00,,,-99.99,1.0,HOBO +U30 +Weather +,2013-09-13 07:44:00,
2013-09-13 03:45:00,70.0,69.3,29.57,WNW,293,0.0,0.0,97,0.00,,,-99.99,1.0,HOBO +U30 +Weather +,2013-09-13 07:45:00,
2013-09-13 03:46:00,70.0,69.3,29.57,WNW,296,0.0,0.0,97,0.00,,,-99.99,1.0,HOBO +U30 +Weather +,2013-09-13 07:46:00,
2013-09-13 03:47:00,70.1,69.3,29.56,West,277,0.0,0.0,97,0.00,,,-99.99,1.0,HOBO +U30 +Weather +,2013-09-13 07:47:00,
2013-09-13 03:48:00,70.2,69.4,29.56,West,278,0.0,0.0,97,0.00,,,-99.99,1.0,HOBO +U30 +Weather +,2013-09-13 07:48:00,
2013-09-13 03:49:00,70.2,69.4,29.56,West,267,0.0,0.0,97,0.00,,,-99.99,1.0,HOBO +U30 +Weather +,2013-09-13 07:49:00,
2013-09-13 03:50:00,70.2,69.4,29.56,NW,307,0.0,0.0,97,0.00,,,-99.99,1.0,HOBO +U30 +Weather +,2013-09-13 07:50:00,
2013-09-13 03:51:00,70.2,69.5,29.56,WNW,286,0.0,0.0,97,0.00,,,-99.99,1.0,HOBO +U30 +Weather +,2013-09-13 07:51:00,
2013-09-13 03:52:00,70.3,69.5,29.56,NW,321,0.0,0.0,97,0.00,,,-99.99,1.0,HOBO +U30 +Weather +,2013-09-13 07:52:00,
2013-09-13 03:53:00,70.3,69.5,29.56,WNW,295,0.0,0.0,97,0.00,,,-99.99,1.0,HOBO +U30 +Weather +,2013-09-13 07:53:00,
2013-09-13 03:54:00,70.3,69.6,29.56,WNW,302,0.0,0.0,97,0.00,,,-99.99,1.0,HOBO +U30 +Weather +,2013-09-13 07:54:00,
2013-09-13 03:55:00,70.4,69.6,29.56,NW,305,0.0,0.0,97,0.00,,,-99.99,1.0,HOBO +U30 +Weather +,2013-09-13 07:55:00,
2013-09-13 03:56:00,70.4,69.7,29.56,WNW,286,0.0,0.0,97,0.00,,,-99.99,1.0,HOBO +U30 +Weather +,2013-09-13 07:56:00,
2013-09-13 03:57:00,70.4,69.6,29.56,WNW,291,0.0,0.0,97,0.00,,,-99.99,1.0,HOBO +U30 +Weather +,2013-09-13 07:57:00,
2013-09-13 03:58:00,70.4,69.7,29.56,WNW,298,0.0,0.0,97,0.00,,,-99.99,1.0,HOBO +U30 +Weather +,2013-09-13 07:58:00,
2013-09-13 03:59:00,70.5,69.7,29.56,NW,310,0.0,0.0,97,0.00,,,-99.99,1.0,HOBO +U30 +Weather +,2013-09-13 07:59:00,
2013-09-13 04:00:00,70.5,69.7,29.56,WNW,289,0.0,0.0,97,0.00,,,-99.99,1.0,HOBO +U30 +Weather +,2013-09-13 08:00:00,
2013-09-13 04:08:00,70.5,69.7,29.55,West,271,0.0,0.0,97,0.00,,,-99.99,1.0,HOBO +U30 +Weather +,2013-09-13 08:08:00,
2013-09-13 04:17:00,70.5,69.7,29.54,WNW,288,0.0,0.0,97,0.00,,,-99.99,1.0,HOBO +U30 +Weather +,2013-09-13 08:17:00,
2013-09-13 04:27:00,70.5,69.7,29.54,WNW,289,0.0,0.0,97,0.00,,,-99.99,1.0,HOBO +U30 +Weather +,2013-09-13 08:27:00,
2013-09-13 04:37:00,70.4,69.6,29.54,West,278,0.0,0.0,97,0.00,,,-99.99,1.0,HOBO +U30 +Weather +,2013-09-13 08:37:00,
2013-09-13 04:38:00,70.2,69.5,29.54,West,277,0.0,0.0,97,0.00,,,-99.99,1.0,HOBO +U30 +Weather +,2013-09-13 08:38:00,
2013-09-13 04:48:00,70.2,69.5,29.55,WNW,299,0.0,0.0,97,0.00,,,-99.99,1.0,HOBO +U30 +Weather +,2013-09-13 08:48:00,
2013-09-13 04:57:00,70.3,69.6,29.55,WNW,291,0.0,0.0,97,0.00,,,-99.99,1.0,HOBO +U30 +Weather +,2013-09-13 08:57:00,
2013-09-13 05:07:00,70.4,69.6,29.55,WNW,288,0.0,0.0,97,0.00,,,-99.99,1.0,HOBO +U30 +Weather +,2013-09-13 09:07:00,
2013-09-13 05:17:00,70.3,69.6,29.54,WNW,282,0.0,0.0,97,0.00,,,-99.99,1.0,HOBO +U30 +Weather +,2013-09-13 09:17:00,
2013-09-13 05:27:00,70.3,69.5,29.54,WNW,300,0.0,0.0,97,0.00,,,-99.99,1.0,HOBO +U30 +Weather +,2013-09-13 09:27:00,
2013-09-13 05:37:00,70.3,69.5,29.54,WNW,292,0.0,0.0,97,0.00,,,-99.99,1.0,HOBO +U30 +Weather +,2013-09-13 09:37:00,
2013-09-13 05:47:00,70.3,69.5,29.54,NW,309,0.0,0.0,97,0.00,,,-99.99,1.0,HOBO +U30 +Weather +,2013-09-13 09:47:00,
2013-09-13 05:57:00,70.3,69.6,29.54,WNW,291,0.0,0.0,97,0.00,,,-99.99,1.0,HOBO +U30 +Weather +,2013-09-13 09:57:00,
2013-09-13 06:07:00,70.2,69.6,29.54,NW,312,0.0,0.0,97,0.00,,,-99.99,1.0,HOBO +U30 +Weather +,2013-09-13 10:07:00,
2013-09-13 06:17:00,70.1,69.5,29.54,WNW,298,0.0,0.0,97,0.00,,,-99.99,1.0,HOBO +U30 +Weather +,2013-09-13 10:17:00,
2013-09-13 06:27:00,70.0,69.5,29.54,WNW,282,0.0,0.0,98,0.00,,,-99.99,1.0,HOBO +U30 +Weather +,2013-09-13 10:27:00,
2013-09-13 06:37:00,69.8,69.5,29.54,West,272,0.0,0.0,98,0.00,,,-99.99,1.0,HOBO +U30 +Weather +,2013-09-13 10:37:00,
2013-09-13 06:38:00,69.7,69.5,29.54,NW,314,0.0,0.0,99,0.00,,,-99.99,1.0,HOBO +U30 +Weather +,2013-09-13 10:38:00,
2013-09-13 06:48:00,69.7,69.5,29.54,WNW,291,0.0,0.0,99,0.00,,,-99.99,1.0,HOBO +U30 +Weather +,2013-09-13 10:48:00,
2013-09-13 06:57:00,69.7,69.6,29.54,SW,232,0.0,0.0,99,0.00,,,-99.99,7.0,HOBO +U30 +Weather +,2013-09-13 10:57:00,
2013-09-13 06:58:00,69.7,69.7,29.55,NW,305,0.0,0.0,99,0.00,,,-99.99,3.0,HOBO +U30 +Weather +,2013-09-13 10:58:00,
2013-09-13 06:59:00,69.7,69.7,29.55,West,279,0.0,0.0,99,0.00,,,-99.99,4.0,HOBO +U30 +Weather +,2013-09-13 10:59:00,
2013-09-13 07:00:00,69.7,69.7,29.55,WSW,253,0.0,0.0,99,0.00,,,-99.99,6.0,HOBO +U30 +Weather +,2013-09-13 11:00:00,
2013-09-13 07:01:00,69.7,69.7,29.55,WSW,254,0.0,0.0,99,0.00,,,-99.99,6.0,HOBO +U30 +Weather +,2013-09-13 11:01:00,
2013-09-13 07:02:00,69.7,69.7,29.55,WSW,254,0.0,0.0,99,0.00,,,-99.99,7.0,HOBO +U30 +Weather +,2013-09-13 11:02:00,
2013-09-13 07:03:00,69.7,69.7,29.55,WSW,254,0.0,0.0,99,0.00,,,-99.99,8.0,HOBO +U30 +Weather +,2013-09-13 11:03:00,
2013-09-13 07:04:00,69.7,69.7,29.55,WSW,254,0.0,0.0,99,0.00,,,-99.99,9.0,HOBO +U30 +Weather +,2013-09-13 11:04:00,
2013-09-13 07:05:00,69.8,69.7,29.55,WSW,256,0.0,0.0,99,0.00,,,-99.99,9.0,HOBO +U30 +Weather +,2013-09-13 11:05:00,
2013-09-13 07:06:00,69.8,69.7,29.55,West,268,0.0,0.0,99,0.00,,,-99.99,9.0,HOBO +U30 +Weather +,2013-09-13 11:06:00,
2013-09-13 07:07:00,69.8,69.7,29.55,West,268,0.0,0.0,99,0.00,,,-99.99,9.0,HOBO +U30 +Weather +,2013-09-13 11:07:00,
2013-09-13 07:08:00,69.8,69.7,29.55,West,268,0.0,0.0,99,0.00,,,-99.99,9.0,HOBO +U30 +Weather +,2013-09-13 11:08:00,
2013-09-13 07:18:00,69.8,69.8,29.55,West,267,0.0,0.0,99,0.00,,,-99.99,7.0,HOBO +U30 +Weather +,2013-09-13 11:18:00,
2013-09-13 07:26:00,69.8,69.8,29.56,WNW,285,0.0,0.0,99,0.00,,,-99.99,3.0,HOBO +U30 +Weather +,2013-09-13 11:26:00,
2013-09-13 07:27:00,69.8,69.8,29.56,North,1,0.0,0.0,100,0.00,,,-99.99,6.0,HOBO +U30 +Weather +,2013-09-13 11:27:00,
2013-09-13 07:37:00,69.8,69.8,29.56,NNE,14,0.0,0.0,100,0.00,,,-99.99,6.0,HOBO +U30 +Weather +,2013-09-13 11:37:00,
2013-09-13 07:38:00,69.6,69.7,29.55,WNW,302,0.0,0.0,100,0.00,,,-99.99,12.0,HOBO +U30 +Weather +,2013-09-13 11:38:00,
2013-09-13 07:39:00,69.6,69.7,29.55,NW,310,0.0,0.0,100,0.00,,,-99.99,13.0,HOBO +U30 +Weather +,2013-09-13 11:39:00,
2013-09-13 07:40:00,69.6,69.7,29.56,NW,309,0.0,0.0,100,0.00,,,-99.99,12.0,HOBO +U30 +Weather +,2013-09-13 11:40:00,
2013-09-13 07:41:00,69.6,69.7,29.55,WNW,300,0.0,0.0,100,0.00,,,-99.99,13.0,HOBO +U30 +Weather +,2013-09-13 11:41:00,
2013-09-13 07:42:00,69.6,69.7,29.56,NW,307,0.0,0.0,100,0.00,,,-99.99,12.0,HOBO +U30 +Weather +,2013-09-13 11:42:00,
2013-09-13 07:43:00,69.6,69.7,29.56,WNW,282,0.0,0.0,100,0.00,,,-99.99,9.0,HOBO +U30 +Weather +,2013-09-13 11:43:00,
2013-09-13 07:44:00,69.6,69.7,29.56,NNW,344,0.0,0.0,100,0.00,,,-99.99,8.0,HOBO +U30 +Weather +,2013-09-13 11:44:00,
2013-09-13 07:45:00,69.5,69.6,29.55,North,355,0.0,0.0,100,0.00,,,-99.99,8.0,HOBO +U30 +Weather +,2013-09-13 11:45:00,
2013-09-13 07:46:00,69.5,69.6,29.55,WNW,300,0.0,0.0,100,0.00,,,-99.99,11.0,HOBO +U30 +Weather +,2013-09-13 11:46:00,
2013-09-13 07:56:00,69.5,69.6,29.56,WNW,291,0.0,0.0,100,0.00,,,-99.99,12.0,HOBO +U30 +Weather +,2013-09-13 11:56:00,
2013-09-13 08:06:00,69.5,69.5,29.55,WNW,292,0.0,0.0,100,0.00,,,-99.99,22.0,HOBO +U30 +Weather +,2013-09-13 12:06:00,
2013-09-13 08:15:00,69.3,69.3,29.55,North,10,0.0,0.0,100,0.00,,,-99.99,21.0,HOBO +U30 +Weather +,2013-09-13 12:15:00,
2013-09-13 08:16:00,69.2,69.2,29.55,WNW,286,0.0,0.0,100,0.00,,,-99.99,24.0,HOBO +U30 +Weather +,2013-09-13 12:16:00,
2013-09-13 08:26:00,69.2,69.3,29.55,West,278,0.0,0.0,100,0.00,,,-99.99,23.0,HOBO +U30 +Weather +,2013-09-13 12:26:00,
2013-09-13 08:35:00,69.3,69.3,29.55,West,275,0.0,0.0,100,0.00,,,-99.99,29.0,HOBO +U30 +Weather +,2013-09-13 12:35:00,
2013-09-13 08:45:00,69.3,69.3,29.55,West,268,0.0,0.0,100,0.00,,,-99.99,24.0,HOBO +U30 +Weather +,2013-09-13 12:45:00,
2013-09-13 08:55:00,69.3,69.3,29.55,West,268,0.0,0.0,100,0.00,,,-99.99,42.0,HOBO +U30 +Weather +,2013-09-13 12:55:00,
2013-09-13 08:56:00,69.5,69.6,29.55,West,268,0.0,0.0,100,0.00,,,-99.99,44.0,HOBO +U30 +Weather +,2013-09-13 12:56:00,
2013-09-13 09:06:00,69.5,69.6,29.55,West,268,0.0,0.0,100,0.00,,,-99.99,47.0,HOBO +U30 +Weather +,2013-09-13 13:06:00,
2013-09-13 09:15:00,69.9,69.9,29.54,NW,305,0.0,0.0,100,0.00,,,-99.99,54.0,HOBO +U30 +Weather +,2013-09-13 13:15:00,
2013-09-13 09:25:00,70.5,70.6,29.55,West,261,0.0,0.0,100,0.00,,,-99.99,93.0,HOBO +U30 +Weather +,2013-09-13 13:25:00,
2013-09-13 09:35:00,70.4,70.5,29.55,SW,227,0.0,0.0,100,0.00,,,-99.99,61.0,HOBO +U30 +Weather +,2013-09-13 13:35:00,
2013-09-13 09:45:00,70.3,70.4,29.55,SW,236,0.0,0.0,100,0.00,,,-99.99,92.0,HOBO +U30 +Weather +,2013-09-13 13:45:00,
2013-09-13 09:55:00,70.5,70.6,29.55,WNW,291,0.0,0.0,100,0.00,,,-99.99,87.0,HOBO +U30 +Weather +,2013-09-13 13:55:00,
2013-09-13 10:05:00,70.3,70.3,29.54,NW,305,0.0,0.0,100,0.00,,,-99.99,74.0,HOBO +U30 +Weather +,2013-09-13 14:05:00,
2013-09-13 10:06:00,70.5,70.5,29.54,NW,305,0.0,0.0,99,0.00,,,-99.99,68.0,HOBO +U30 +Weather +,2013-09-13 14:06:00,
2013-09-13 10:16:00,70.5,70.5,29.54,NW,305,0.0,0.0,99,0.00,,,-99.99,68.0,HOBO +U30 +Weather +,2013-09-13 14:16:00,
2013-09-13 10:17:00,70.5,70.4,29.53,NW,314,0.0,0.0,99,0.00,,,-99.99,87.0,HOBO +U30 +Weather +,2013-09-13 14:17:00,
2013-09-13 10:18:00,70.5,70.4,29.54,NW,314,0.0,0.0,99,0.00,,,-99.99,87.0,HOBO +U30 +Weather +,2013-09-13 14:18:00,
2013-09-13 10:19:00,70.5,70.4,29.54,NW,314,0.0,0.0,99,0.00,,,-99.99,83.0,HOBO +U30 +Weather +,2013-09-13 14:19:00,
2013-09-13 10:20:00,70.6,70.5,29.53,NW,314,0.0,0.0,99,0.00,,,-99.99,79.0,HOBO +U30 +Weather +,2013-09-13 14:20:00,
2013-09-13 10:21:00,70.5,70.3,29.53,NW,314,0.0,0.0,99,0.00,,,-99.99,77.0,HOBO +U30 +Weather +,2013-09-13 14:21:00,
2013-09-13 10:22:00,70.5,70.3,29.53,NW,314,0.0,0.0,99,0.00,,,-99.99,78.0,HOBO +U30 +Weather +,2013-09-13 14:22:00,
2013-09-13 10:23:00,70.4,70.2,29.53,NW,314,0.0,0.0,99,0.00,,,-99.99,82.0,HOBO +U30 +Weather +,2013-09-13 14:23:00,
2013-09-13 10:24:00,70.4,70.2,29.53,NW,314,0.0,0.0,99,0.00,,,-99.99,88.0,HOBO +U30 +Weather +,2013-09-13 14:24:00,
2013-09-13 10:25:00,70.5,70.3,29.53,NW,314,0.0,0.0,99,0.00,,,-99.99,96.0,HOBO +U30 +Weather +,2013-09-13 14:25:00,
2013-09-13 10:26:00,70.5,70.3,29.53,NW,314,0.0,0.0,99,0.00,,,-99.99,104.0,HOBO +U30 +Weather +,2013-09-13 14:26:00,
2013-09-13 10:36:00,70.7,70.5,29.53,NW,314,0.0,0.0,99,0.00,,,-99.99,114.0,HOBO +U30 +Weather +,2013-09-13 14:36:00,
2013-09-13 10:45:00,71.2,71.0,29.54,NW,314,0.0,0.0,98,0.00,,,-99.99,139.0,HOBO +U30 +Weather +,2013-09-13 14:45:00,
2013-09-13 10:55:00,71.1,70.6,29.54,NE,35,0.0,0.0,98,0.00,,,-99.99,192.0,HOBO +U30 +Weather +,2013-09-13 14:55:00,
2013-09-13 11:05:00,71.4,70.7,29.54,ENE,76,0.0,0.0,97,0.00,,,-99.99,171.0,HOBO +U30 +Weather +,2013-09-13 15:05:00,
2013-09-13 11:15:00,71.5,70.6,29.54,ENE,74,0.0,0.0,96,0.00,,,-99.99,121.0,HOBO +U30 +Weather +,2013-09-13 15:15:00,
2013-09-13 11:25:00,71.4,70.5,29.54,East,84,0.0,0.0,96,0.00,,,-99.99,136.0,HOBO +U30 +Weather +,2013-09-13 15:25:00,
2013-09-13 11:35:00,71.9,70.7,29.53,ESE,118,0.0,0.0,95,0.00,,,-99.99,232.0,HOBO +U30 +Weather +,2013-09-13 15:35:00,
2013-09-13 11:45:00,73.7,71.8,29.53,ESE,117,0.0,0.0,93,0.00,,,-99.99,344.0,HOBO +U30 +Weather +,2013-09-13 15:45:00,
2013-09-13 11:55:00,74.3,72.3,29.53,ENE,74,0.0,0.0,93,0.00,,,-99.99,323.0,HOBO +U30 +Weather +,2013-09-13 15:55:00,
2013-09-13 11:56:00,73.5,70.7,29.53,NE,37,0.0,0.0,90,0.00,,,-99.99,173.0,HOBO +U30 +Weather +,2013-09-13 15:56:00,
2013-09-13 11:57:00,73.4,70.5,29.53,NE,37,0.0,0.0,90,0.00,,,-99.99,182.0,HOBO +U30 +Weather +,2013-09-13 15:57:00,
2013-09-13 11:58:00,73.4,70.6,29.52,NE,37,0.0,0.0,90,0.00,,,-99.99,199.0,HOBO +U30 +Weather +,2013-09-13 15:58:00,
2013-09-13 11:59:00,73.5,70.6,29.52,NE,37,0.0,0.0,90,0.00,,,-99.99,217.0,HOBO +U30 +Weather +,2013-09-13 15:59:00,
2013-09-13 12:00:00,73.6,70.9,29.52,NE,37,0.0,0.0,91,0.00,,,-99.99,224.0,HOBO +U30 +Weather +,2013-09-13 16:00:00,
2013-09-13 12:01:00,73.6,71.0,29.52,NE,37,0.0,0.0,91,0.00,,,-99.99,271.0,HOBO +U30 +Weather +,2013-09-13 16:01:00,
2013-09-13 12:02:00,73.4,70.5,29.52,NE,37,0.0,0.0,90,0.00,,,-99.99,303.0,HOBO +U30 +Weather +,2013-09-13 16:02:00,
2013-09-13 12:03:00,73.7,70.8,29.53,NE,37,0.0,0.0,90,0.00,,,-99.99,323.0,HOBO +U30 +Weather +,2013-09-13 16:03:00,
2013-09-13 12:04:00,74.1,71.4,29.52,NE,37,0.0,0.0,91,0.00,,,-99.99,318.0,HOBO +U30 +Weather +,2013-09-13 16:04:00,
2013-09-13 12:14:00,74.2,71.2,29.52,ENE,76,0.0,0.0,90,0.00,,,-99.99,303.0,HOBO +U30 +Weather +,2013-09-13 16:14:00,
2013-09-13 12:15:00,74.4,71.2,29.53,South,184,0.0,0.0,89,0.00,,,-99.99,194.0,HOBO +U30 +Weather +,2013-09-13 16:15:00,
2013-09-13 12:16:00,74.2,70.9,29.53,South,184,0.0,0.0,89,0.00,,,-99.99,179.0,HOBO +U30 +Weather +,2013-09-13 16:16:00,
2013-09-13 12:17:00,74.0,70.8,29.53,South,184,0.0,0.0,89,0.00,,,-99.99,167.0,HOBO +U30 +Weather +,2013-09-13 16:17:00,
2013-09-13 12:18:00,74.1,70.9,29.52,South,184,0.0,0.0,89,0.00,,,-99.99,156.0,HOBO +U30 +Weather +,2013-09-13 16:18:00,
2013-09-13 12:19:00,74.0,70.8,29.53,South,184,0.0,0.0,89,0.00,,,-99.99,134.0,HOBO +U30 +Weather +,2013-09-13 16:19:00,
2013-09-13 12:20:00,74.1,70.9,29.53,South,184,0.0,0.0,89,0.00,,,-99.99,108.0,HOBO +U30 +Weather +,2013-09-13 16:20:00,
2013-09-13 12:21:00,74.0,71.0,29.52,South,184,0.0,0.0,90,0.00,,,-99.99,86.0,HOBO +U30 +Weather +,2013-09-13 16:21:00,
2013-09-13 12:22:00,73.9,71.0,29.53,South,184,0.0,0.0,90,0.00,,,-99.99,79.0,HOBO +U30 +Weather +,2013-09-13 16:22:00,
2013-09-13 12:23:00,73.6,70.8,29.52,South,184,0.0,0.0,91,0.00,,,-99.99,76.0,HOBO +U30 +Weather +,2013-09-13 16:23:00,
2013-09-13 12:24:00,73.3,70.8,29.53,South,184,0.0,0.0,91,0.00,,,-99.99,73.0,HOBO +U30 +Weather +,2013-09-13 16:24:00,
2013-09-13 12:25:00,73.2,70.8,29.52,South,184,0.0,0.0,92,0.00,,,-99.99,69.0,HOBO +U30 +Weather +,2013-09-13 16:25:00,
2013-09-13 12:26:00,73.1,70.8,29.53,South,184,0.0,0.0,92,0.00,,,-99.99,56.0,HOBO +U30 +Weather +,2013-09-13 16:26:00,
2013-09-13 12:27:00,73.0,70.7,29.53,South,184,0.0,0.0,92,0.00,,,-99.99,48.0,HOBO +U30 +Weather +,2013-09-13 16:27:00,
2013-09-13 12:28:00,72.8,70.6,29.53,South,184,0.0,0.0,92,0.00,,,-99.99,43.0,HOBO +U30 +Weather +,2013-09-13 16:28:00,
2013-09-13 12:29:00,72.6,70.4,29.52,SE,124,0.0,0.0,92,0.00,,,-99.99,37.0,HOBO +U30 +Weather +,2013-09-13 16:29:00,
2013-09-13 12:30:00,72.1,69.8,29.53,NNE,14,0.0,0.0,92,0.00,,,-99.99,31.0,HOBO +U30 +Weather +,2013-09-13 16:30:00,
2013-09-13 12:31:00,71.3,69.2,29.53,North,8,0.0,0.0,92,0.00,,,-99.99,26.0,HOBO +U30 +Weather +,2013-09-13 16:31:00,
2013-09-13 12:32:00,70.9,69.0,29.52,NNE,25,0.0,0.0,93,0.00,,,-99.99,24.0,HOBO +U30 +Weather +,2013-09-13 16:32:00,
2013-09-13 12:33:00,70.7,69.0,29.52,East,100,0.0,0.0,94,0.00,,,-99.99,24.0,HOBO +U30 +Weather +,2013-09-13 16:33:00,
2013-09-13 12:34:00,70.4,68.7,29.53,East,83,0.0,0.0,94,0.00,,,-99.99,23.0,HOBO +U30 +Weather +,2013-09-13 16:34:00,
2013-09-13 12:35:00,70.1,68.5,29.53,NE,52,0.0,0.0,94,0.00,,,-99.99,23.0,HOBO +U30 +Weather +,2013-09-13 16:35:00,
2013-09-13 12:36:00,69.8,68.3,29.54,NE,51,0.0,0.0,94,0.00,,,-99.99,21.0,HOBO +U30 +Weather +,2013-09-13 16:36:00,
2013-09-13 12:37:00,69.4,68.0,29.54,ESE,122,0.0,0.0,95,0.00,,,-99.99,24.0,HOBO +U30 +Weather +,2013-09-13 16:37:00,
2013-09-13 12:38:00,69.2,67.8,29.54,ENE,67,0.0,0.0,95,0.00,,,-99.99,31.0,HOBO +U30 +Weather +,2013-09-13 16:38:00,
2013-09-13 12:39:00,68.9,67.7,29.54,NE,56,0.0,0.0,95,0.00,,,-99.99,37.0,HOBO +U30 +Weather +,2013-09-13 16:39:00,
2013-09-13 12:40:00,68.5,67.4,29.53,NE,42,0.0,0.0,96,0.00,,,-99.99,49.0,HOBO +U30 +Weather +,2013-09-13 16:40:00,
2013-09-13 12:41:00,68.2,67.2,29.53,East,90,0.0,0.0,96,0.00,,,-99.99,62.0,HOBO +U30 +Weather +,2013-09-13 16:41:00,
2013-09-13 12:42:00,68.0,67.0,29.53,ESE,105,0.0,0.0,96,0.00,,,-99.99,67.0,HOBO +U30 +Weather +,2013-09-13 16:42:00,
2013-09-13 12:43:00,67.8,66.9,29.53,ESE,108,0.0,0.0,96,0.00,,,-99.99,64.0,HOBO +U30 +Weather +,2013-09-13 16:43:00,
2013-09-13 12:44:00,67.9,67.0,29.52,ESE,110,0.0,0.0,96,0.00,,,-99.99,58.0,HOBO +U30 +Weather +,2013-09-13 16:44:00,
2013-09-13 12:54:00,68.0,67.2,29.53,East,94,0.0,0.0,97,0.00,,,-99.99,54.0,HOBO +U30 +Weather +,2013-09-13 16:54:00,
2013-09-13 13:02:00,68.1,67.5,29.53,ESE,110,0.0,0.0,97,0.00,,,-99.99,101.0,HOBO +U30 +Weather +,2013-09-13 17:02:00,
2013-09-13 13:12:00,69.0,68.6,29.52,ESE,107,0.0,0.0,98,0.00,,,-99.99,238.0,HOBO +U30 +Weather +,2013-09-13 17:12:00,
2013-09-13 13:22:00,70.4,69.6,29.52,SE,128,0.0,0.0,97,0.00,,,-99.99,388.0,HOBO +U30 +Weather +,2013-09-13 17:22:00,
2013-09-13 13:32:00,73.4,71.7,29.52,South,178,0.0,0.0,94,0.00,,,-99.99,333.0,HOBO +U30 +Weather +,2013-09-13 17:32:00,
2013-09-13 13:33:00,74.1,71.9,29.51,SSE,164,0.0,0.0,92,0.00,,,-99.99,453.0,HOBO +U30 +Weather +,2013-09-13 17:33:00,
2013-09-13 13:43:00,74.5,71.9,29.52,SSE,164,0.0,0.0,91,0.00,,,-99.99,577.0,HOBO +U30 +Weather +,2013-09-13 17:43:00,
2013-09-13 13:53:00,74.5,71.8,29.51,ESE,112,0.0,0.0,91,0.00,,,-99.99,354.0,HOBO +U30 +Weather +,2013-09-13 17:53:00,
2013-09-13 13:54:00,76.2,71.8,29.50,NE,39,0.0,0.0,86,0.00,,,-99.99,567.0,HOBO +U30 +Weather +,2013-09-13 17:54:00,
2013-09-13 13:55:00,76.4,72.4,29.50,NNE,27,0.0,0.0,87,0.00,,,-99.99,539.0,HOBO +U30 +Weather +,2013-09-13 17:55:00,
2013-09-13 13:56:00,76.9,72.6,29.50,NNE,27,0.0,0.0,86,0.00,,,-99.99,519.0,HOBO +U30 +Weather +,2013-09-13 17:56:00,
2013-09-13 13:57:00,77.5,72.9,29.51,NE,34,0.0,0.0,85,0.00,,,-99.99,524.0,HOBO +U30 +Weather +,2013-09-13 17:57:00,
2013-09-13 13:58:00,76.7,71.6,29.50,ESE,102,0.0,0.0,84,0.00,,,-99.99,321.0,HOBO +U30 +Weather +,2013-09-13 17:58:00,
2013-09-13 13:59:00,75.8,71.0,29.51,SE,128,0.0,0.0,84,0.00,,,-99.99,316.0,HOBO +U30 +Weather +,2013-09-13 17:59:00,
2013-09-13 14:00:00,75.5,71.2,29.50,ESE,117,0.0,0.0,86,0.00,,,-99.99,303.0,HOBO +U30 +Weather +,2013-09-13 18:00:00,
2013-09-13 14:01:00,74.9,70.3,29.50,East,97,0.0,0.0,85,0.00,,,-99.99,308.0,HOBO +U30 +Weather +,2013-09-13 18:01:00,
2013-09-13 14:02:00,74.8,70.6,29.50,SE,140,0.0,0.0,86,0.00,,,-99.99,292.0,HOBO +U30 +Weather +,2013-09-13 18:02:00,
2013-09-13 14:03:00,75.0,71.0,29.50,SE,139,0.0,0.0,87,0.00,,,-99.99,282.0,HOBO +U30 +Weather +,2013-09-13 18:03:00,
2013-09-13 14:04:00,75.2,71.6,29.50,ENE,67,0.0,0.0,88,0.00,,,-99.99,272.0,HOBO +U30 +Weather +,2013-09-13 18:04:00,
2013-09-13 14:05:00,75.3,71.3,29.50,East,86,0.0,0.0,87,0.00,,,-99.99,276.0,HOBO +U30 +Weather +,2013-09-13 18:05:00,
2013-09-13 14:06:00,75.2,70.8,29.51,ESE,107,0.0,0.0,86,0.00,,,-99.99,254.0,HOBO +U30 +Weather +,2013-09-13 18:06:00,
2013-09-13 14:07:00,75.0,70.9,29.50,East,84,0.0,0.0,87,0.00,,,-99.99,276.0,HOBO +U30 +Weather +,2013-09-13 18:07:00,
2013-09-13 14:08:00,75.0,71.2,29.50,East,80,0.0,0.0,87,0.00,,,-99.99,251.0,HOBO +U30 +Weather +,2013-09-13 18:08:00,
2013-09-13 14:09:00,75.2,71.3,29.50,East,80,0.0,0.0,87,0.00,,,-99.99,286.0,HOBO +U30 +Weather +,2013-09-13 18:09:00,
2013-09-13 14:10:00,75.3,71.3,29.50,East,80,0.0,0.0,87,0.00,,,-99.99,487.0,HOBO +U30 +Weather +,2013-09-13 18:10:00,
2013-09-13 14:11:00,75.5,71.3,29.50,East,80,0.0,0.0,86,0.00,,,-99.99,547.0,HOBO +U30 +Weather +,2013-09-13 18:11:00,
2013-09-13 14:12:00,75.5,70.9,29.50,ESE,102,0.0,0.0,85,0.00,,,-99.99,559.0,HOBO +U30 +Weather +,2013-09-13 18:12:00,
2013-09-13 14:13:00,75.9,71.5,29.50,East,93,0.0,0.0,86,0.00,,,-99.99,581.0,HOBO +U30 +Weather +,2013-09-13 18:13:00,
2013-09-13 14:14:00,76.2,72.2,29.50,ENE,73,0.0,0.0,87,0.00,,,-99.99,506.0,HOBO +U30 +Weather +,2013-09-13 18:14:00,
2013-09-13 14:15:00,76.0,70.6,29.50,ESE,112,0.0,0.0,83,0.00,,,-99.99,579.0,HOBO +U30 +Weather +,2013-09-13 18:15:00,
2013-09-13 14:16:00,76.6,72.4,29.50,ESE,112,0.0,0.0,86,0.00,,,-99.99,531.0,HOBO +U30 +Weather +,2013-09-13 18:16:00,
2013-09-13 14:17:00,76.4,71.2,29.50,ENE,66,0.0,0.0,83,0.00,,,-99.99,486.0,HOBO +U30 +Weather +,2013-09-13 18:17:00,
2013-09-13 14:18:00,76.2,70.7,29.51,ENE,66,0.0,0.0,83,0.00,,,-99.99,268.0,HOBO +U30 +Weather +,2013-09-13 18:18:00,
2013-09-13 14:19:00,75.8,70.5,29.50,NE,45,0.0,0.0,83,0.00,,,-99.99,288.0,HOBO +U30 +Weather +,2013-09-13 18:19:00,
2013-09-13 14:20:00,76.1,70.5,29.50,NE,45,0.0,0.0,82,0.00,,,-99.99,436.0,HOBO +U30 +Weather +,2013-09-13 18:20:00,
2013-09-13 14:21:00,76.5,70.6,29.50,NE,45,0.0,0.0,81,0.00,,,-99.99,346.0,HOBO +U30 +Weather +,2013-09-13 18:21:00,
2013-09-13 14:22:00,76.8,70.5,29.50,NE,45,0.0,0.0,81,0.00,,,-99.99,332.0,HOBO +U30 +Weather +,2013-09-13 18:22:00,
2013-09-13 14:32:00,76.9,70.7,29.51,NE,45,0.0,0.0,81,0.00,,,-99.99,302.0,HOBO +U30 +Weather +,2013-09-13 18:32:00,
2013-09-13 14:33:00,76.6,71.3,29.51,NE,41,0.0,0.0,83,0.00,,,-99.99,422.0,HOBO +U30 +Weather +,2013-09-13 18:33:00,
2013-09-13 14:34:00,77.2,71.3,29.50,NE,41,0.0,0.0,82,0.00,,,-99.99,353.0,HOBO +U30 +Weather +,2013-09-13 18:34:00,
2013-09-13 14:35:00,76.9,70.4,29.51,NE,41,0.0,0.0,80,0.00,,,-99.99,567.0,HOBO +U30 +Weather +,2013-09-13 18:35:00,
2013-09-13 14:36:00,76.5,70.5,29.51,NE,41,0.0,0.0,81,0.00,,,-99.99,357.0,HOBO +U30 +Weather +,2013-09-13 18:36:00,
2013-09-13 14:37:00,76.3,70.2,29.51,NE,41,0.0,0.0,81,0.00,,,-99.99,359.0,HOBO +U30 +Weather +,2013-09-13 18:37:00,
2013-09-13 14:38:00,76.2,70.5,29.51,NE,41,0.0,0.0,82,0.00,,,-99.99,294.0,HOBO +U30 +Weather +,2013-09-13 18:38:00,
2013-09-13 14:39:00,76.2,70.7,29.51,NE,41,0.0,0.0,83,0.00,,,-99.99,277.0,HOBO +U30 +Weather +,2013-09-13 18:39:00,
2013-09-13 14:40:00,76.6,71.4,29.51,NE,41,0.0,0.0,84,0.00,,,-99.99,289.0,HOBO +U30 +Weather +,2013-09-13 18:40:00,
2013-09-13 14:41:00,76.4,71.1,29.51,NE,41,0.0,0.0,83,0.00,,,-99.99,301.0,HOBO +U30 +Weather +,2013-09-13 18:41:00,
2013-09-13 14:51:00,76.2,71.1,29.51,NE,41,0.0,0.0,83,0.00,,,-99.99,286.0,HOBO +U30 +Weather +,2013-09-13 18:51:00,
2013-09-13 15:01:00,76.4,71.7,29.51,ESE,104,0.0,0.0,85,0.00,,,-99.99,402.0,HOBO +U30 +Weather +,2013-09-13 19:01:00,
2013-09-13 15:11:00,77.5,71.8,29.51,WSW,256,0.0,0.0,82,0.00,,,-99.99,386.0,HOBO +U30 +Weather +,2013-09-13 19:11:00,
2013-09-13 15:21:00,76.8,71.1,29.50,NNE,13,0.0,0.0,82,0.00,,,-99.99,599.0,HOBO +U30 +Weather +,2013-09-13 19:21:00,
2013-09-13 15:31:00,78.1,72.0,29.51,West,275,0.0,0.0,81,0.00,,,-99.99,411.0,HOBO +U30 +Weather +,2013-09-13 19:31:00,
2013-09-13 15:41:00,75.7,70.2,29.51,WNW,284,0.0,0.0,82,0.00,,,-99.99,326.0,HOBO +U30 +Weather +,2013-09-13 19:41:00,
2013-09-13 15:51:00,75.6,71.6,29.51,WNW,296,0.0,0.0,87,0.00,,,-99.99,418.0,HOBO +U30 +Weather +,2013-09-13 19:51:00,
2013-09-13 16:01:00,75.6,70.8,29.51,NW,307,0.0,0.0,84,0.00,,,-99.99,509.0,HOBO +U30 +Weather +,2013-09-13 20:01:00,
2013-09-13 16:02:00,75.0,69.5,29.51,WNW,284,0.0,0.0,83,0.00,,,-99.99,502.0,HOBO +U30 +Weather +,2013-09-13 20:02:00,
2013-09-13 16:03:00,75.3,70.3,29.51,West,279,0.0,0.0,84,0.00,,,-99.99,499.0,HOBO +U30 +Weather +,2013-09-13 20:03:00,
2013-09-13 16:04:00,75.8,70.8,29.51,NW,307,0.0,0.0,84,0.00,,,-99.99,528.0,HOBO +U30 +Weather +,2013-09-13 20:04:00,
2013-09-13 16:05:00,76.2,71.4,29.51,NW,309,0.0,0.0,84,0.00,,,-99.99,529.0,HOBO +U30 +Weather +,2013-09-13 20:05:00,
2013-09-13 16:06:00,76.4,70.9,29.51,WNW,298,0.0,0.0,83,0.00,,,-99.99,524.0,HOBO +U30 +Weather +,2013-09-13 20:06:00,
2013-09-13 16:07:00,76.6,71.3,29.51,WNW,302,0.0,0.0,83,0.00,,,-99.99,513.0,HOBO +U30 +Weather +,2013-09-13 20:07:00,
2013-09-13 16:08:00,76.7,71.0,29.51,WNW,293,0.0,0.0,82,0.00,,,-99.99,491.0,HOBO +U30 +Weather +,2013-09-13 20:08:00,
2013-09-13 16:09:00,76.6,71.0,29.51,NW,309,0.0,0.0,82,0.00,,,-99.99,457.0,HOBO +U30 +Weather +,2013-09-13 20:09:00,
2013-09-13 16:10:00,76.3,70.8,29.51,NW,306,0.0,0.0,82,0.00,,,-99.99,436.0,HOBO +U30 +Weather +,2013-09-13 20:10:00,
2013-09-13 16:11:00,76.0,70.0,29.51,WNW,299,0.0,0.0,81,0.00,,,-99.99,427.0,HOBO +U30 +Weather +,2013-09-13 20:11:00,
2013-09-13 16:12:00,75.3,69.7,29.51,NW,307,0.0,0.0,82,0.00,,,-99.99,423.0,HOBO +U30 +Weather +,2013-09-13 20:12:00,
2013-09-13 16:13:00,75.3,70.4,29.51,WNW,282,0.0,0.0,84,0.00,,,-99.99,419.0,HOBO +U30 +Weather +,2013-09-13 20:13:00,
2013-09-13 16:14:00,75.8,71.1,29.51,WNW,288,0.0,0.0,85,0.00,,,-99.99,413.0,HOBO +U30 +Weather +,2013-09-13 20:14:00,
2013-09-13 16:15:00,75.9,70.5,29.51,NW,309,0.0,0.0,83,0.00,,,-99.99,414.0,HOBO +U30 +Weather +,2013-09-13 20:15:00,
2013-09-13 16:16:00,75.9,70.3,29.51,NW,305,0.0,0.0,82,0.00,,,-99.99,413.0,HOBO +U30 +Weather +,2013-09-13 20:16:00,
2013-09-13 16:17:00,75.8,70.4,29.51,WNW,292,0.0,0.0,83,0.00,,,-99.99,412.0,HOBO +U30 +Weather +,2013-09-13 20:17:00,
2013-09-13 16:18:00,75.7,69.9,29.51,West,274,0.0,0.0,82,0.00,,,-99.99,414.0,HOBO +U30 +Weather +,2013-09-13 20:18:00,
2013-09-13 16:19:00,75.5,69.9,29.51,West,279,0.0,0.0,82,0.00,,,-99.99,408.0,HOBO +U30 +Weather +,2013-09-13 20:19:00,
2013-09-13 16:20:00,75.5,70.0,29.52,WNW,286,0.0,0.0,82,0.00,,,-99.99,412.0,HOBO +U30 +Weather +,2013-09-13 20:20:00,
2013-09-13 16:21:00,75.1,69.4,29.51,WNW,299,0.0,0.0,82,0.00,,,-99.99,413.0,HOBO +U30 +Weather +,2013-09-13 20:21:00,
2013-09-13 16:22:00,74.9,69.5,29.51,WNW,286,0.0,0.0,83,0.00,,,-99.99,416.0,HOBO +U30 +Weather +,2013-09-13 20:22:00,
2013-09-13 16:23:00,74.8,69.5,29.51,West,279,0.0,0.0,83,0.00,,,-99.99,316.0,HOBO +U30 +Weather +,2013-09-13 20:23:00,
2013-09-13 16:24:00,74.5,69.5,29.51,West,274,0.0,0.0,84,0.00,,,-99.99,307.0,HOBO +U30 +Weather +,2013-09-13 20:24:00,
2013-09-13 16:25:00,74.2,69.2,29.51,West,274,0.0,0.0,84,0.00,,,-99.99,132.0,HOBO +U30 +Weather +,2013-09-13 20:25:00,
2013-09-13 16:26:00,73.9,69.2,29.51,WNW,296,0.0,0.0,85,0.00,,,-99.99,133.0,HOBO +U30 +Weather +,2013-09-13 20:26:00,
2013-09-13 16:27:00,73.6,69.0,29.51,WNW,300,0.0,0.0,85,0.00,,,-99.99,179.0,HOBO +U30 +Weather +,2013-09-13 20:27:00,
2013-09-13 16:28:00,73.7,69.2,29.52,WNW,289,0.0,0.0,85,0.00,,,-99.99,206.0,HOBO +U30 +Weather +,2013-09-13 20:28:00,
2013-09-13 16:29:00,73.7,69.2,29.52,West,281,0.0,0.0,85,0.00,,,-99.99,323.0,HOBO +U30 +Weather +,2013-09-13 20:29:00,
2013-09-13 16:30:00,73.8,69.3,29.52,West,274,0.0,0.0,85,0.00,,,-99.99,361.0,HOBO +U30 +Weather +,2013-09-13 20:30:00,
2013-09-13 16:40:00,73.9,69.3,29.52,NW,310,0.0,0.0,85,0.00,,,-99.99,306.0,HOBO +U30 +Weather +,2013-09-13 20:40:00,
2013-09-13 16:41:00,73.3,69.1,29.52,WNW,288,0.0,0.0,86,0.00,,,-99.99,348.0,HOBO +U30 +Weather +,2013-09-13 20:41:00,
2013-09-13 16:42:00,73.5,69.0,29.52,West,268,0.0,0.0,85,0.00,,,-99.99,353.0,HOBO +U30 +Weather +,2013-09-13 20:42:00,
2013-09-13 16:43:00,73.4,69.0,29.52,WNW,288,0.0,0.0,85,0.00,,,-99.99,294.0,HOBO +U30 +Weather +,2013-09-13 20:43:00,
2013-09-13 16:44:00,73.3,69.0,29.52,NW,309,0.0,0.0,86,0.00,,,-99.99,242.0,HOBO +U30 +Weather +,2013-09-13 20:44:00,
2013-09-13 16:45:00,73.1,69.0,29.52,WNW,291,0.0,0.0,86,0.00,,,-99.99,341.0,HOBO +U30 +Weather +,2013-09-13 20:45:00,
2013-09-13 16:46:00,73.2,68.9,29.52,WNW,299,0.0,0.0,86,0.00,,,-99.99,227.0,HOBO +U30 +Weather +,2013-09-13 20:46:00,
2013-09-13 16:47:00,73.2,69.0,29.52,West,272,0.0,0.0,86,0.00,,,-99.99,306.0,HOBO +U30 +Weather +,2013-09-13 20:47:00,
2013-09-13 16:48:00,73.2,69.0,29.51,West,272,0.0,0.0,86,0.00,,,-99.99,101.0,HOBO +U30 +Weather +,2013-09-13 20:48:00,
2013-09-13 16:49:00,72.9,68.7,29.51,WNW,285,0.0,0.0,86,0.00,,,-99.99,108.0,HOBO +U30 +Weather +,2013-09-13 20:49:00,
2013-09-13 16:50:00,72.6,68.7,29.51,WNW,291,0.0,0.0,87,0.00,,,-99.99,126.0,HOBO +U30 +Weather +,2013-09-13 20:50:00,
2013-09-13 16:51:00,72.3,68.4,29.51,NW,305,0.0,0.0,87,0.00,,,-99.99,139.0,HOBO +U30 +Weather +,2013-09-13 20:51:00,
2013-09-13 16:52:00,72.0,68.3,29.51,WNW,292,0.0,0.0,88,0.00,,,-99.99,138.0,HOBO +U30 +Weather +,2013-09-13 20:52:00,
2013-09-13 16:53:00,72.0,68.4,29.52,WNW,298,0.0,0.0,88,0.00,,,-99.99,134.0,HOBO +U30 +Weather +,2013-09-13 20:53:00,
2013-09-13 16:54:00,71.9,68.5,29.51,WNW,285,0.0,0.0,88,0.00,,,-99.99,131.0,HOBO +U30 +Weather +,2013-09-13 20:54:00,
2013-09-13 16:55:00,71.9,68.4,29.51,WNW,298,0.0,0.0,88,0.00,,,-99.99,146.0,HOBO +U30 +Weather +,2013-09-13 20:55:00,
2013-09-13 16:56:00,71.9,68.7,29.52,WNW,284,0.0,0.0,89,0.00,,,-99.99,317.0,HOBO +U30 +Weather +,2013-09-13 20:56:00,
2013-09-13 16:57:00,72.2,68.8,29.52,WNW,289,0.0,0.0,89,0.00,,,-99.99,397.0,HOBO +U30 +Weather +,2013-09-13 20:57:00,
2013-09-13 16:58:00,72.4,69.0,29.52,WNW,282,0.0,0.0,89,0.00,,,-99.99,409.0,HOBO +U30 +Weather +,2013-09-13 20:58:00,
2013-09-13 16:59:00,72.8,69.2,29.52,West,279,0.0,0.0,88,0.00,,,-99.99,376.0,HOBO +U30 +Weather +,2013-09-13 20:59:00,
2013-09-13 17:00:00,73.0,69.5,29.52,West,271,0.0,0.0,88,0.00,,,-99.99,153.0,HOBO +U30 +Weather +,2013-09-13 21:00:00,
2013-09-13 17:01:00,72.9,69.3,29.52,WNW,282,0.0,0.0,88,0.00,,,-99.99,143.0,HOBO +U30 +Weather +,2013-09-13 21:01:00,
2013-09-13 17:02:00,72.8,69.1,29.51,WNW,295,0.0,0.0,88,0.00,,,-99.99,143.0,HOBO +U30 +Weather +,2013-09-13 21:02:00,
2013-09-13 17:03:00,72.7,69.1,29.52,WNW,286,0.0,0.0,88,0.00,,,-99.99,132.0,HOBO +U30 +Weather +,2013-09-13 21:03:00,
2013-09-13 17:04:00,72.6,68.8,29.52,West,281,0.0,0.0,87,0.00,,,-99.99,348.0,HOBO +U30 +Weather +,2013-09-13 21:04:00,
2013-09-13 17:05:00,72.9,69.2,29.51,WNW,288,0.0,0.0,88,0.00,,,-99.99,346.0,HOBO +U30 +Weather +,2013-09-13 21:05:00,
2013-09-13 17:06:00,73.0,69.0,29.52,WNW,289,0.0,0.0,87,0.00,,,-99.99,338.0,HOBO +U30 +Weather +,2013-09-13 21:06:00,
2013-09-13 17:07:00,73.2,69.2,29.52,WNW,284,0.0,0.0,87,0.00,,,-99.99,329.0,HOBO +U30 +Weather +,2013-09-13 21:07:00,
2013-09-13 17:08:00,73.3,69.1,29.51,WNW,288,0.0,0.0,86,0.00,,,-99.99,332.0,HOBO +U30 +Weather +,2013-09-13 21:08:00,
2013-09-13 17:09:00,73.3,69.0,29.52,West,279,0.0,0.0,86,0.00,,,-99.99,342.0,HOBO +U30 +Weather +,2013-09-13 21:09:00,
2013-09-13 17:10:00,73.5,69.0,29.52,WNW,285,0.0,0.0,85,0.00,,,-99.99,343.0,HOBO +U30 +Weather +,2013-09-13 21:10:00,
2013-09-13 17:20:00,73.7,69.1,29.52,WNW,303,0.0,0.0,85,0.00,,,-99.99,339.0,HOBO +U30 +Weather +,2013-09-13 21:20:00,
2013-09-13 17:29:00,73.0,68.4,29.52,WNW,292,0.0,0.0,85,0.00,,,-99.99,223.0,HOBO +U30 +Weather +,2013-09-13 21:29:00,
2013-09-13 17:39:00,71.8,68.2,29.51,West,277,0.0,0.0,88,0.00,,,-99.99,166.0,HOBO +U30 +Weather +,2013-09-13 21:39:00,
2013-09-13 17:40:00,70.8,67.9,29.53,WNW,303,0.0,0.0,90,0.00,,,-99.99,72.0,HOBO +U30 +Weather +,2013-09-13 21:40:00,
2013-09-13 17:41:00,70.7,68.0,29.53,NW,310,0.0,0.0,90,0.00,,,-99.99,71.0,HOBO +U30 +Weather +,2013-09-13 21:41:00,
2013-09-13 17:42:00,70.6,68.0,29.53,NW,312,0.0,0.0,91,0.00,,,-99.99,72.0,HOBO +U30 +Weather +,2013-09-13 21:42:00,
2013-09-13 17:43:00,70.5,68.0,29.53,WNW,295,0.0,0.0,91,0.00,,,-99.99,73.0,HOBO +U30 +Weather +,2013-09-13 21:43:00,
2013-09-13 17:44:00,70.5,68.0,29.53,NW,306,0.0,0.0,91,0.00,,,-99.99,76.0,HOBO +U30 +Weather +,2013-09-13 21:44:00,
2013-09-13 17:45:00,70.4,67.9,29.53,WNW,288,0.0,0.0,91,0.00,,,-99.99,78.0,HOBO +U30 +Weather +,2013-09-13 21:45:00,
2013-09-13 17:46:00,70.4,68.0,29.52,NW,305,0.0,0.0,92,0.00,,,-99.99,83.0,HOBO +U30 +Weather +,2013-09-13 21:46:00,
2013-09-13 17:47:00,70.4,68.0,29.52,NW,312,0.0,0.0,92,0.00,,,-99.99,97.0,HOBO +U30 +Weather +,2013-09-13 21:47:00,
2013-09-13 17:48:00,70.4,68.0,29.52,WNW,302,0.0,0.0,92,0.00,,,-99.99,108.0,HOBO +U30 +Weather +,2013-09-13 21:48:00,
2013-09-13 17:49:00,70.4,68.1,29.52,WNW,292,0.0,0.0,92,0.00,,,-99.99,103.0,HOBO +U30 +Weather +,2013-09-13 21:49:00,
2013-09-13 17:59:00,70.5,68.1,29.52,West,277,0.0,0.0,92,0.00,,,-99.99,104.0,HOBO +U30 +Weather +,2013-09-13 21:59:00,
2013-09-13 18:08:00,70.5,68.2,29.53,NW,310,0.0,0.0,92,0.00,,,-99.99,83.0,HOBO +U30 +Weather +,2013-09-13 22:08:00,
2013-09-13 18:09:00,70.3,68.1,29.53,West,275,0.0,0.0,92,0.00,,,-99.99,67.0,HOBO +U30 +Weather +,2013-09-13 22:09:00,
2013-09-13 18:18:00,70.3,68.2,29.54,West,261,0.0,0.0,92,0.00,,,-99.99,62.0,HOBO +U30 +Weather +,2013-09-13 22:18:00,
2013-09-13 18:19:00,70.3,68.1,29.53,WSW,241,0.0,0.0,92,0.00,,,-99.99,69.0,HOBO +U30 +Weather +,2013-09-13 22:19:00,
2013-09-13 18:28:00,70.3,68.2,29.54,West,272,0.0,0.0,92,0.00,,,-99.99,59.0,HOBO +U30 +Weather +,2013-09-13 22:28:00,
2013-09-13 18:29:00,69.9,68.0,29.54,WNW,285,0.0,0.0,93,0.00,,,-99.99,41.0,HOBO +U30 +Weather +,2013-09-13 22:29:00,
2013-09-13 18:38:00,69.8,67.9,29.54,West,271,0.0,0.0,93,0.00,,,-99.99,22.0,HOBO +U30 +Weather +,2013-09-13 22:38:00,
2013-09-13 18:39:00,69.9,68.0,29.54,WNW,284,0.0,0.0,93,0.00,,,-99.99,38.0,HOBO +U30 +Weather +,2013-09-13 22:39:00,
2013-09-13 18:48:00,69.8,67.9,29.54,WNW,286,0.0,0.0,93,0.00,,,-99.99,19.0,HOBO +U30 +Weather +,2013-09-13 22:48:00,
2013-09-13 18:49:00,69.7,68.1,29.54,WNW,293,0.0,0.0,94,0.00,,,-99.99,8.0,HOBO +U30 +Weather +,2013-09-13 22:49:00,
2013-09-13 18:58:00,69.5,67.8,29.54,WNW,292,0.0,0.0,94,0.00,,,-99.99,7.0,HOBO +U30 +Weather +,2013-09-13 22:58:00,
2013-09-13 18:59:00,69.7,68.0,29.54,West,270,0.0,0.0,94,0.00,,,-99.99,7.0,HOBO +U30 +Weather +,2013-09-13 22:59:00,
2013-09-13 19:08:00,69.4,67.8,29.55,WNW,292,0.0,0.0,94,0.00,,,-99.99,6.0,HOBO +U30 +Weather +,2013-09-13 23:08:00,
2013-09-13 19:18:00,68.9,67.5,29.56,WNW,291,0.0,0.0,95,0.00,,,-99.99,1.0,HOBO +U30 +Weather +,2013-09-13 23:18:00,
2013-09-13 19:28:00,69.1,67.7,29.56,ENE,77,0.0,0.0,95,0.00,,,-99.99,1.0,HOBO +U30 +Weather +,2013-09-13 23:28:00,
2013-09-13 19:37:00,70.1,67.6,29.57,East,80,0.0,0.0,91,0.00,,,-99.99,1.0,HOBO +U30 +Weather +,2013-09-13 23:37:00,
2013-09-13 19:48:00,69.5,66.8,29.57,ENE,74,0.0,0.0,90,0.00,,,-99.99,1.0,HOBO +U30 +Weather +,2013-09-13 23:48:00,
2013-09-13 19:49:00,68.8,66.3,29.59,SE,124,0.0,0.0,91,0.00,,,-99.99,1.0,HOBO +U30 +Weather +,2013-09-13 23:49:00,
2013-09-13 19:50:00,68.7,66.2,29.60,ENE,72,0.0,0.0,91,0.00,,,-99.99,1.0,HOBO +U30 +Weather +,2013-09-13 23:50:00,
2013-09-13 19:51:00,68.7,66.2,29.59,East,93,0.0,0.0,91,0.00,,,-99.99,1.0,HOBO +U30 +Weather +,2013-09-13 23:51:00,
2013-09-13 19:52:00,68.6,66.2,29.60,NE,52,0.0,0.0,91,0.00,,,-99.99,1.0,HOBO +U30 +Weather +,2013-09-13 23:52:00,
2013-09-13 19:53:00,68.6,66.2,29.59,East,97,0.0,0.0,91,0.00,,,-99.99,1.0,HOBO +U30 +Weather +,2013-09-13 23:53:00,
2013-09-13 19:54:00,68.6,66.2,29.59,NE,48,0.0,0.0,91,0.00,,,-99.99,1.0,HOBO +U30 +Weather +,2013-09-13 23:54:00,
2013-09-13 19:55:00,68.5,66.1,29.59,East,101,0.0,0.0,91,0.00,,,-99.99,1.0,HOBO +U30 +Weather +,2013-09-13 23:55:00,
2013-09-13 19:56:00,68.5,66.1,29.60,East,93,0.0,0.0,92,0.00,,,-99.99,1.0,HOBO +U30 +Weather +,2013-09-13 23:56:00,
2013-09-13 19:57:00,68.4,66.1,29.60,East,80,0.0,0.0,92,0.00,,,-99.99,1.0,HOBO +U30 +Weather +,2013-09-13 23:57:00,
2013-09-13 19:58:00,68.4,66.1,29.60,East,80,0.0,0.0,92,0.00,,,-99.99,1.0,HOBO +U30 +Weather +,2013-09-13 23:58:00,
2013-09-13 20:08:00,68.3,66.1,29.60,ENE,63,0.0,0.0,92,0.00,,,-99.99,1.0,HOBO +U30 +Weather +,2013-09-14 00:08:00,
2013-09-13 20:17:00,67.6,65.9,29.61,NE,56,0.0,0.0,94,0.00,,,-99.99,1.0,HOBO +U30 +Weather +,2013-09-14 00:17:00,
2013-09-13 20:18:00,67.9,66.0,29.60,ENE,60,0.0,0.0,93,0.00,,,-99.99,1.0,HOBO +U30 +Weather +,2013-09-14 00:18:00,
2013-09-13 20:27:00,67.6,65.8,29.61,NE,49,0.0,0.0,94,0.00,,,-99.99,1.0,HOBO +U30 +Weather +,2013-09-14 00:27:00,
2013-09-13 20:37:00,67.2,65.7,29.61,NE,52,0.0,0.0,94,0.00,,,-99.99,1.0,HOBO +U30 +Weather +,2013-09-14 00:37:00,
2013-09-13 20:47:00,66.8,65.4,29.62,ENE,59,0.0,0.0,95,0.00,,,-99.99,1.0,HOBO +U30 +Weather +,2013-09-14 00:47:00,
2013-09-13 20:57:00,66.8,65.2,29.62,ENE,65,0.0,0.0,94,0.00,,,-99.99,1.0,HOBO +U30 +Weather +,2013-09-14 00:57:00,
2013-09-13 21:07:00,67.0,64.6,29.62,NE,53,0.0,0.0,91,0.00,,,-99.99,1.0,HOBO +U30 +Weather +,2013-09-14 01:07:00,
2013-09-13 21:17:00,66.9,64.1,29.63,East,87,0.0,0.0,90,0.00,,,-99.99,1.0,HOBO +U30 +Weather +,2013-09-14 01:17:00,
2013-09-13 21:27:00,66.7,63.7,29.63,East,84,0.0,0.0,90,0.00,,,-99.99,1.0,HOBO +U30 +Weather +,2013-09-14 01:27:00,
2013-09-13 21:37:00,66.7,63.5,29.64,East,100,0.0,0.0,89,0.00,,,-99.99,1.0,HOBO +U30 +Weather +,2013-09-14 01:37:00,
2013-09-13 21:47:00,66.5,63.4,29.63,ENE,69,0.0,0.0,89,0.00,,,-99.99,1.0,HOBO +U30 +Weather +,2013-09-14 01:47:00,
2013-09-13 21:57:00,66.1,62.2,29.63,ESE,112,0.0,0.0,87,0.00,,,-99.99,1.0,HOBO +U30 +Weather +,2013-09-14 01:57:00,
2013-09-13 22:07:00,65.5,62.0,29.64,NNE,27,0.0,0.0,88,0.00,,,-99.99,1.0,HOBO +U30 +Weather +,2013-09-14 02:07:00,
2013-09-13 22:17:00,64.9,61.9,29.64,NE,42,0.0,0.0,89,0.00,,,-99.99,1.0,HOBO +U30 +Weather +,2013-09-14 02:17:00,
2013-09-13 22:18:00,64.3,61.8,29.64,ESE,112,0.0,0.0,91,0.00,,,-99.99,1.0,HOBO +U30 +Weather +,2013-09-14 02:18:00,
2013-09-13 22:28:00,64.2,61.8,29.64,East,90,0.0,0.0,91,0.00,,,-99.99,1.0,HOBO +U30 +Weather +,2013-09-14 02:28:00,
2013-09-13 22:37:00,63.5,61.4,29.65,NE,38,0.0,0.0,92,0.00,,,-99.99,1.0,HOBO +U30 +Weather +,2013-09-14 02:37:00,
2013-09-13 22:47:00,63.4,61.4,29.65,NE,38,0.0,0.0,93,0.00,,,-99.99,1.0,HOBO +U30 +Weather +,2013-09-14 02:47:00,
2013-09-13 22:57:00,62.7,61.1,29.65,NE,38,0.0,0.0,94,0.00,,,-99.99,1.0,HOBO +U30 +Weather +,2013-09-14 02:57:00,
2013-09-13 23:07:00,62.3,60.9,29.65,East,88,0.0,0.0,94,0.00,,,-99.99,1.0,HOBO +U30 +Weather +,2013-09-14 03:07:00,
2013-09-13 23:17:00,61.8,60.6,29.65,East,88,0.0,0.0,95,0.00,,,-99.99,1.0,HOBO +U30 +Weather +,2013-09-14 03:17:00,
2013-09-13 23:27:00,61.7,60.7,29.65,NE,55,0.0,0.0,96,0.00,,,-99.99,1.0,HOBO +U30 +Weather +,2013-09-14 03:27:00,
2013-09-13 23:37:00,61.6,60.6,29.65,ENE,65,0.0,0.0,96,0.00,,,-99.99,1.0,HOBO +U30 +Weather +,2013-09-14 03:37:00,
2013-09-13 23:47:00,61.3,60.5,29.66,ESE,108,0.0,0.0,97,0.00,,,-99.99,1.0,HOBO +U30 +Weather +,2013-09-14 03:47:00,
2013-09-13 23:57:00,61.3,60.4,29.66,ENE,70,0.0,0.0,96,0.00,,,-99.99,1.0,HOBO +U30 +Weather +,2013-09-14 03:57:00,